createdAt,value
2022-11-21T00:01:54.619Z,57.90
2022-11-21T00:04:27.113Z,56.20
2022-11-21T00:06:59.762Z,55.50
2022-11-21T00:09:34.016Z,57.30
2022-11-21T00:12:06.522Z,62.20
2022-11-21T00:14:40.745Z,57.20
2022-11-21T00:17:13.712Z,52.60
2022-11-21T00:19:45.767Z,55.70
2022-11-21T00:22:17.904Z,54.50
2022-11-21T00:24:54.048Z,55.20
2022-11-21T00:27:26.483Z,52.10
2022-11-21T00:30:00.303Z,54.30
2022-11-21T00:32:32.829Z,52.80
2022-11-21T00:35:05.351Z,53.80
2022-11-21T00:37:38.223Z,53.30
2022-11-21T00:40:13.014Z,50.00
2022-11-21T00:42:45.751Z,58.50
2022-11-21T00:45:23.904Z,63.60
2022-11-21T00:47:56.547Z,65.00
2022-11-21T00:50:28.693Z,60.50
2022-11-21T00:53:01.275Z,54.90
2022-11-21T00:55:33.425Z,64.80
2022-11-21T00:58:05.685Z,58.10
2022-11-21T01:00:37.822Z,69.10
2022-11-21T01:03:13.248Z,64.50
2022-11-21T01:05:45.398Z,57.80
2022-11-21T01:08:17.727Z,64.20
2022-11-21T01:10:53.003Z,64.20
2022-11-21T01:13:25.104Z,65.50
2022-11-21T01:15:57.634Z,67.60
2022-11-21T01:18:29.779Z,76.50
2022-11-21T01:21:08.147Z,71.50
2022-11-21T01:23:40.660Z,62.60
2022-11-21T01:26:15.221Z,64.10
2022-11-21T01:28:47.838Z,66.20
2022-11-21T01:31:21.678Z,68.50
2022-11-21T01:33:54.296Z,71.50
2022-11-21T01:36:28.759Z,73.40
2022-11-21T01:39:03.367Z,77.80
2022-11-21T01:41:37.528Z,71.00
2022-11-21T01:44:24.502Z,78.90
2022-11-21T01:46:56.949Z,65.70
2022-11-21T01:49:32.007Z,71.90
2022-11-21T01:52:08.517Z,73.50
2022-11-21T01:54:44.294Z,73.30
2022-11-21T01:57:20.595Z,75.40
2022-11-21T01:59:58.049Z,80.10
2022-11-21T02:02:34.201Z,70.90
2022-11-21T02:05:10.489Z,62.60
2022-11-21T02:07:45.720Z,81.20
2022-11-21T02:10:19.304Z,70.80
2022-11-21T02:12:54.845Z,76.80
2022-11-21T02:15:30.354Z,77.70
2022-11-21T02:18:03.572Z,77.10
2022-11-21T02:20:36.514Z,82.70
2022-11-21T02:23:14.282Z,71.60
2022-11-21T02:25:46.844Z,76.90
2022-11-21T02:28:21.351Z,85.60
2022-11-21T02:30:53.460Z,80.90
2022-11-21T02:33:28.249Z,75.30
2022-11-21T02:36:01.947Z,69.10
2022-11-21T02:38:39.411Z,76.30
2022-11-21T02:41:18.602Z,84.90
2022-11-21T02:43:54.211Z,89.70
2022-11-21T02:46:27.076Z,83.60
2022-11-21T02:48:59.825Z,87.90
2022-11-21T02:51:33.842Z,87.00
2022-11-21T02:54:09.130Z,68.90
2022-11-21T02:56:41.367Z,79.20
2022-11-21T02:59:13.469Z,67.30
2022-11-21T03:01:45.828Z,70.40
2022-11-21T03:04:20.720Z,72.50
2022-11-21T03:06:52.772Z,80.30
2022-11-21T03:09:24.850Z,77.20
2022-11-21T03:11:57.262Z,85.20
2022-11-21T03:14:29.626Z,75.10
2022-11-21T03:17:01.982Z,65.40
2022-11-21T03:19:34.281Z,74.80
2022-11-21T03:22:06.436Z,88.50
2022-11-21T03:24:38.533Z,85.80
2022-11-21T03:27:10.656Z,85.60
2022-11-21T03:29:42.759Z,90.30
2022-11-21T03:32:14.900Z,81.90
2022-11-21T03:34:47.125Z,88.00
2022-11-21T03:37:19.244Z,85.40
2022-11-21T03:39:51.389Z,91.70
2022-11-21T03:42:23.604Z,87.70
2022-11-21T03:44:55.802Z,89.90
2022-11-21T03:47:27.817Z,80.40
2022-11-21T03:49:59.931Z,86.70
2022-11-21T03:52:32.190Z,91.10
2022-11-21T03:55:04.529Z,90.90
2022-11-21T03:57:36.656Z,76.50
2022-11-21T04:00:12.904Z,92.50
2022-11-21T04:02:44.949Z,94.90
2022-11-21T04:05:17.295Z,84.40
2022-11-21T04:07:49.582Z,86.20
2022-11-21T04:10:22.111Z,95.50
2022-11-21T04:12:54.676Z,90.70
2022-11-21T04:15:27.462Z,88.80
2022-11-21T04:17:59.566Z,94.40
2022-11-21T04:20:31.639Z,89.70
2022-11-21T04:23:09.217Z,110.10
2022-11-21T04:25:41.724Z,104.90
2022-11-21T04:28:16.289Z,112.30
2022-11-21T04:30:48.507Z,121.30
2022-11-21T04:33:21.078Z,103.40
2022-11-21T04:35:54.394Z,116.50
2022-11-21T04:38:26.918Z,120.80
2022-11-21T04:40:59.111Z,108.50
2022-11-21T04:43:31.179Z,249.10
2022-11-21T04:46:03.440Z,199.40
2022-11-21T04:48:35.534Z,161.80
2022-11-21T04:51:07.742Z,117.70
2022-11-21T04:53:43.077Z,99.90
2022-11-21T04:56:16.714Z,103.50
2022-11-21T04:58:49.222Z,109.90
2022-11-21T05:01:21.336Z,108.80
2022-11-21T05:03:55.012Z,126.60
2022-11-21T05:06:27.188Z,127.40
2022-11-21T05:08:59.264Z,127.00
2022-11-21T05:11:49.236Z,125.90
2022-11-21T05:14:23.587Z,117.60
2022-11-21T05:16:55.749Z,155.70
2022-11-21T05:19:27.812Z,151.50
2022-11-21T05:22:00.037Z,153.30
2022-11-21T05:24:33.158Z,145.70
2022-11-21T05:27:05.499Z,144.40
2022-11-21T05:29:37.910Z,138.70
2022-11-21T05:32:10.089Z,150.40
2022-11-21T05:34:42.471Z,139.70
2022-11-21T05:37:14.688Z,136.20
2022-11-21T05:39:46.759Z,131.70
2022-11-21T05:42:39.126Z,141.10
2022-11-21T05:45:12.529Z,94.40
2022-11-21T05:47:47.095Z,107.10
2022-11-21T05:50:19.792Z,102.80
2022-11-21T05:52:51.911Z,106.80
2022-11-21T05:55:24.791Z,103.00
2022-11-21T05:57:58.788Z,98.80
2022-11-21T06:00:31.371Z,106.40
2022-11-21T06:03:21.691Z,135.60
2022-11-21T06:05:53.920Z,172.80
2022-11-21T06:08:26.079Z,196.40
2022-11-21T06:10:58.692Z,177.90
2022-11-21T06:13:31.131Z,170.90
2022-11-21T06:16:06.122Z,164.50
2022-11-21T06:18:39.584Z,161.20
2022-11-21T06:21:15.172Z,120.70
2022-11-21T06:23:48.039Z,95.80
2022-11-21T06:26:21.856Z,104.60
2022-11-21T06:28:54.374Z,104.00
2022-11-21T06:31:28.405Z,123.60
2022-11-21T06:34:01.565Z,100.10
2022-11-21T06:36:33.906Z,78.80
2022-11-21T06:39:06.694Z,77.90
2022-11-21T06:41:39.079Z,95.60
2022-11-21T06:44:11.359Z,83.30
2022-11-21T06:46:52.905Z,81.20
2022-11-21T06:49:32.147Z,85.20
2022-11-21T06:52:06.103Z,65.00
2022-11-21T06:54:38.779Z,90.60
2022-11-21T06:57:11.025Z,81.00
2022-11-21T06:59:43.732Z,86.60
2022-11-21T07:02:18.163Z,85.70
2022-11-21T07:04:50.573Z,82.60
2022-11-21T07:07:23.346Z,86.80
2022-11-21T07:09:56.983Z,79.80
2022-11-21T07:12:47.139Z,85.20
2022-11-21T07:15:19.709Z,79.80
2022-11-21T07:17:51.899Z,70.60
2022-11-21T07:20:24.332Z,95.40
2022-11-21T07:22:58.003Z,91.30
2022-11-21T07:25:36.638Z,90.70
2022-11-21T07:28:10.293Z,98.50
2022-11-21T07:30:42.409Z,81.70
2022-11-21T07:33:14.964Z,85.10
2022-11-21T07:35:47.248Z,80.80
2022-11-21T07:38:20.314Z,87.40
2022-11-21T07:40:52.871Z,82.10
2022-11-21T07:43:25.274Z,86.20
2022-11-21T07:45:57.845Z,77.10
2022-11-21T07:48:30.805Z,86.30
2022-11-21T07:51:06.494Z,82.80
2022-11-21T07:53:38.800Z,108.10
2022-11-21T07:56:11.126Z,96.30
2022-11-21T07:58:43.254Z,90.90
2022-11-21T08:01:15.435Z,86.60
2022-11-21T08:03:47.762Z,89.80
2022-11-21T08:06:20.066Z,79.10
2022-11-21T08:08:56.066Z,97.80
2022-11-21T08:11:29.047Z,103.50
2022-11-21T08:14:04.996Z,107.70
2022-11-21T08:16:37.667Z,88.60
2022-11-21T08:19:10.096Z,98.80
2022-11-21T08:21:42.333Z,96.40
2022-11-21T08:24:14.813Z,92.10
2022-11-21T08:26:47.633Z,91.60
2022-11-21T08:29:20.464Z,87.20
2022-11-21T08:31:52.815Z,84.60
2022-11-21T08:34:25.547Z,103.80
2022-11-21T08:53:02.641Z,76.20
2022-11-21T08:55:34.995Z,79.90
2022-11-21T08:58:07.281Z,72.90
2022-11-21T09:01:10.474Z,71.00
2022-11-21T09:03:49.086Z,71.70
2022-11-21T09:06:21.250Z,73.80
2022-11-21T09:09:10.634Z,67.90
2022-11-21T09:11:49.099Z,73.10
2022-11-21T09:19:05.196Z,67.30
2022-11-21T09:22:22.182Z,56.20
2022-11-21T09:25:49.270Z,59.90
2022-11-21T09:28:28.235Z,58.60
2022-11-21T09:34:50.417Z,64.10
2022-11-21T09:42:52.962Z,52.00
2022-11-21T09:49:34.906Z,46.30
2022-11-21T09:57:34.621Z,44.70
2022-11-21T10:04:32.497Z,42.90
2022-11-21T10:12:14.106Z,44.50
2022-11-21T10:24:20.849Z,46.90
2022-11-21T10:31:16.779Z,37.30
2022-11-21T10:33:51.659Z,40.90
2022-11-21T10:36:31.800Z,41.40
2022-11-21T10:39:20.041Z,39.50
2022-11-21T10:42:03.699Z,41.70
2022-11-21T10:44:53.600Z,42.50
2022-11-21T10:56:55.205Z,52.70
2022-11-21T11:04:31.884Z,46.40
2022-11-21T11:12:51.626Z,49.00
2022-11-21T11:15:26.413Z,45.90
2022-11-21T11:18:21.118Z,50.60
2022-11-21T11:20:56.426Z,49.30
2022-11-21T11:29:24.086Z,41.10
2022-11-21T11:31:59.604Z,47.60
2022-11-21T11:39:45.506Z,45.20
2022-11-21T12:00:48.239Z,34.30
2022-11-21T12:21:31.713Z,40.60
2022-11-21T12:24:06.132Z,33.00
2022-11-21T12:27:32.855Z,36.70
2022-11-21T12:30:29.711Z,31.20
2022-11-21T13:22:59.991Z,23.40
2022-11-21T13:30:17.080Z,23.10
2022-11-21T13:33:21.063Z,27.00
2022-11-21T13:36:13.372Z,22.20
2022-11-21T13:39:53.761Z,22.40
2022-11-21T13:51:53.239Z,27.50
2022-11-21T13:55:31.250Z,22.00
2022-11-21T14:03:19.181Z,20.50
2022-11-21T14:10:59.246Z,27.30
2022-11-21T14:22:45.186Z,22.00
2022-11-21T14:35:03.950Z,23.50
2022-11-21T14:37:36.650Z,25.90
2022-11-21T14:40:21.329Z,27.60
2022-11-21T14:47:59.266Z,26.50
2022-11-21T15:58:35.422Z,30.50
2022-11-21T16:01:08.037Z,25.50
2022-11-21T16:03:49.613Z,32.30
2022-11-21T16:07:10.560Z,29.90
2022-11-21T16:09:50.134Z,34.30
2022-11-21T16:12:22.372Z,35.50
2022-11-21T16:15:01.134Z,31.00
2022-11-21T16:17:34.684Z,30.60
2022-11-21T16:20:13.856Z,33.20
2022-11-21T16:22:48.011Z,36.80
2022-11-21T16:30:32.502Z,51.50
2022-11-21T16:33:05.789Z,53.80
2022-11-21T16:35:44.829Z,49.20
2022-11-21T16:38:17.060Z,43.20
2022-11-21T16:50:15.193Z,45.30
2022-11-21T16:52:47.474Z,40.70
2022-11-21T16:55:26.101Z,39.70
2022-11-21T16:57:59.452Z,64.70
2022-11-21T17:00:37.916Z,38.60
2022-11-21T17:03:10.204Z,31.30
2022-11-21T17:10:49.508Z,34.60
2022-11-21T17:13:22.093Z,34.50
2022-11-21T17:21:07.324Z,94.70
2022-11-21T17:23:41.771Z,42.50
2022-11-21T17:27:04.871Z,37.90
2022-11-21T17:34:32.771Z,37.80
2022-11-21T17:38:01.919Z,38.60
2022-11-21T17:50:05.561Z,33.60
2022-11-21T17:53:44.852Z,42.00
2022-11-21T18:05:32.282Z,37.40
2022-11-21T18:08:11.020Z,50.50
2022-11-21T18:10:44.246Z,42.50
2022-11-21T18:18:12.291Z,45.70
2022-11-21T18:20:44.638Z,41.40
2022-11-21T18:23:23.904Z,48.60
2022-11-21T18:25:56.251Z,45.30
2022-11-21T18:29:34.154Z,41.90
2022-11-21T18:56:35.431Z,35.80
2022-11-21T18:59:08.875Z,53.60
2022-11-21T19:01:48.281Z,49.10
2022-11-21T19:13:35.424Z,64.20
2022-11-21T19:16:16.992Z,52.60
2022-11-21T19:24:28.168Z,84.70
2022-11-21T19:27:07.065Z,98.90
2022-11-21T19:29:40.722Z,104.40
2022-11-21T19:32:20.169Z,83.30
2022-11-21T19:40:13.108Z,49.90
2022-11-21T19:43:42.221Z,69.00
2022-11-21T19:55:46.289Z,101.30
2022-11-21T20:02:30.793Z,128.90
2022-11-21T20:14:25.015Z,76.30
2022-11-21T20:30:18.465Z,52.70
2022-11-21T20:37:43.214Z,53.20
2022-11-21T20:40:22.074Z,57.10
2022-11-21T20:42:56.236Z,53.40
2022-11-21T20:49:01.080Z,53.10
2022-11-21T20:55:14.412Z,43.40
2022-11-21T20:57:46.869Z,47.80
2022-11-21T21:09:42.120Z,58.00
2022-11-21T21:12:14.318Z,71.30
2022-11-21T21:14:53.025Z,76.10
2022-11-21T21:17:25.349Z,69.70
2022-11-21T21:29:40.788Z,60.70
2022-11-21T21:32:12.971Z,56.30
2022-11-21T21:35:22.082Z,57.40
2022-11-21T21:37:54.363Z,63.60
2022-11-21T21:40:28.821Z,71.30
2022-11-21T21:43:59.116Z,52.20
2022-11-21T21:46:31.345Z,53.50
2022-11-21T21:53:13.106Z,54.90
2022-11-21T21:55:45.236Z,55.00
2022-11-21T21:58:24.173Z,54.20
2022-11-21T22:07:54.287Z,45.70
2022-11-21T22:10:26.634Z,42.90
2022-11-21T22:14:11.587Z,50.40
2022-11-21T22:16:44.708Z,54.00
2022-11-21T22:23:46.681Z,61.70
2022-11-21T22:27:20.205Z,68.90
2022-11-21T22:29:59.139Z,62.40
2022-11-21T22:32:31.980Z,58.60
2022-11-21T22:40:48.009Z,48.80
2022-11-21T22:43:42.493Z,46.20
2022-11-21T22:46:15.226Z,53.20
2022-11-21T22:53:41.587Z,46.90
2022-11-21T22:56:16.283Z,44.20
2022-11-21T22:58:48.983Z,79.20
2022-11-21T23:01:23.147Z,69.30
2022-11-21T23:04:20.199Z,58.00
2022-11-21T23:06:52.469Z,51.40
2022-11-21T23:09:31.785Z,49.30
2022-11-21T23:12:04.182Z,53.50
2022-11-21T23:14:45.460Z,55.70
2022-11-21T23:17:17.773Z,52.80
2022-11-21T23:19:56.589Z,54.20
2022-11-21T23:22:28.932Z,54.50
2022-11-21T23:25:08.895Z,54.50
2022-11-21T23:27:41.268Z,49.70
2022-11-21T23:34:44.715Z,50.80
2022-11-21T23:37:18.322Z,46.60
2022-11-21T23:39:50.737Z,46.80
2022-11-21T23:42:42.794Z,52.60
2022-11-21T23:54:33.358Z,57.50
2022-11-21T23:57:12.707Z,59.50
2022-11-21T23:59:45.382Z,63.10
